Time;durP1;ratioP1;P1;durP2;ratioP2;P2;SDS_P1;SDS_P2;PMS_P1;PMS_P2;Temp;Humidity;BMP_temperature;BMP_pressure;BME280_temperature;BME280_humidity;BME280_pressure;Samples;Min_cycle;Max_cycle;Signal;HPM_P1;HPM_P2
2023/07/22 00:02:00;;;;;;;10.43;7.47;;;14.70;99.90;;;;;;5051394;28;20108;-71
2023/07/22 00:04:27;;;;;;;10.75;7.78;;;14.70;99.90;;;;;;5050807;28;20466;-71
2023/07/22 00:06:52;;;;;;;11.02;7.97;;;14.70;99.90;;;;;;5049097;28;20378;-71
2023/07/22 00:09:18;;;;;;;9.43;7.40;;;14.60;99.90;;;;;;5050822;28;20032;-72
2023/07/22 00:11:44;;;;;;;11.15;8.18;;;14.70;99.90;;;;;;5048762;28;20029;-71
2023/07/22 00:14:09;;;;;;;9.60;8.05;;;14.70;99.90;;;;;;5050882;28;20032;-71
2023/07/22 00:16:35;;;;;;;11.10;8.82;;;14.70;99.90;;;;;;5050026;28;20485;-72
2023/07/22 00:19:01;;;;;;;11.52;8.20;;;14.60;99.90;;;;;;5049404;28;20040;-71
2023/07/22 00:21:29;;;;;;;11.45;8.32;;;14.60;99.90;;;;;;5049231;28;20079;-72
2023/07/22 00:23:54;;;;;;;10.18;7.90;;;14.60;99.90;;;;;;5049515;28;20056;-71
2023/07/22 00:26:20;;;;;;;12.50;8.68;;;14.60;99.90;;;;;;5050330;28;20458;-71
2023/07/22 00:28:46;;;;;;;11.32;8.05;;;14.60;99.90;;;;;;5049026;28;20347;-72
2023/07/22 00:31:12;;;;;;;10.50;8.52;;;14.60;99.90;;;;;;5050225;28;20028;-71
2023/07/22 00:33:38;;;;;;;11.05;8.25;;;14.60;99.90;;;;;;5049377;28;20028;-73
2023/07/22 00:36:04;;;;;;;11.43;8.52;;;14.60;99.90;;;;;;5050465;28;20028;-72
2023/07/22 00:38:30;;;;;;;15.40;8.68;;;14.70;99.90;;;;;;5050405;28;20071;-75
2023/07/22 00:40:55;;;;;;;12.85;8.20;;;14.70;99.90;;;;;;5049436;28;20025;-72
2023/07/22 00:43:21;;;;;;;10.05;8.63;;;14.70;99.90;;;;;;5050197;28;20103;-72
2023/07/22 00:45:47;;;;;;;10.52;8.48;;;14.60;99.90;;;;;;5049627;28;20423;-71
2023/07/22 00:48:14;;;;;;;12.88;9.05;;;14.60;99.90;;;;;;5048845;28;20443;-72
2023/07/22 00:50:40;;;;;;;12.73;8.50;;;14.60;99.90;;;;;;5049974;28;20124;-72
2023/07/22 00:53:06;;;;;;;11.13;8.13;;;14.60;99.90;;;;;;5049849;28;20047;-71
2023/07/22 00:55:34;;;;;;;11.15;8.30;;;14.60;99.90;;;;;;5049605;28;20029;-74
2023/07/22 00:58:00;;;;;;;10.63;8.25;;;14.60;99.90;;;;;;5048709;28;20485;-72
2023/07/22 01:00:26;;;;;;;11.88;7.97;;;14.60;99.90;;;;;;5050309;28;20025;-71
2023/07/22 01:02:51;;;;;;;10.32;8.00;;;14.60;99.90;;;;;;5049213;28;20657;-72
2023/07/22 01:05:17;;;;;;;9.15;7.00;;;14.60;99.90;;;;;;5049731;28;20033;-71
2023/07/22 01:07:44;;;;;;;9.18;7.15;;;14.60;99.90;;;;;;5049326;28;20104;-72
2023/07/22 01:10:09;;;;;;;8.38;5.90;;;14.70;99.90;;;;;;5048343;28;20037;-72
2023/07/22 01:12:36;;;;;;;8.38;6.13;;;14.70;99.90;;;;;;5049696;28;20588;-72
2023/07/22 01:15:03;;;;;;;7.50;6.45;;;14.70;99.90;;;;;;5049961;28;20044;-71
2023/07/22 01:17:29;;;;;;;9.20;5.72;;;14.70;99.90;;;;;;5049943;28;20052;-71
2023/07/22 01:19:56;;;;;;;7.40;6.50;;;14.70;99.90;;;;;;5049533;28;20029;-71
2023/07/22 01:22:23;;;;;;;8.38;6.40;;;14.70;99.90;;;;;;5049747;28;20024;-71
2023/07/22 01:24:49;;;;;;;6.93;5.47;;;14.60;99.90;;;;;;5049366;28;20100;-71
2023/07/22 01:27:15;;;;;;;8.48;5.53;;;14.60;99.90;;;;;;5049821;28;20455;-73
2023/07/22 01:29:40;;;;;;;7.32;5.68;;;14.60;99.90;;;;;;5049597;28;20067;-73
2023/07/22 01:32:06;;;;;;;5.25;4.75;;;14.70;99.90;;;;;;5050286;28;20021;-73
2023/07/22 01:34:32;;;;;;;6.03;4.93;;;14.60;99.90;;;;;;5049299;28;20079;-72
2023/07/22 01:36:58;;;;;;;5.65;4.70;;;14.60;99.90;;;;;;5049177;28;20156;-71
2023/07/22 01:39:24;;;;;;;6.18;4.53;;;14.70;99.90;;;;;;5049729;28;20442;-71
2023/07/22 01:41:49;;;;;;;5.40;4.65;;;14.60;99.90;;;;;;5047518;28;20025;-70
2023/07/22 01:44:15;;;;;;;5.18;4.45;;;14.60;99.90;;;;;;5049906;28;20415;-73
2023/07/22 01:46:41;;;;;;;5.00;4.30;;;14.60;99.90;;;;;;5047815;28;20067;-73
2023/07/22 01:49:10;;;;;;;4.80;4.28;;;14.70;99.90;;;;;;5049667;28;20044;-71
2023/07/22 01:51:42;;;;;;;6.13;4.50;;;14.70;99.90;;;;;;5049748;28;20078;-74
2023/07/22 01:54:09;;;;;;;5.65;4.43;;;14.60;99.90;;;;;;5053210;28;20041;-71
2023/07/22 01:56:35;;;;;;;4.70;3.75;;;14.70;99.90;;;;;;5053742;28;20044;-73
2023/07/22 01:59:01;;;;;;;8.27;4.68;;;14.60;99.90;;;;;;5053218;28;20029;-71
2023/07/22 02:01:28;;;;;;;4.70;4.00;;;14.70;99.90;;;;;;5053200;28;20480;-70
2023/07/22 02:03:54;;;;;;;4.53;4.00;;;14.60;99.90;;;;;;5052833;28;20070;-71
2023/07/22 02:06:20;;;;;;;5.05;3.90;;;14.60;99.90;;;;;;5053298;28;20025;-72
2023/07/22 02:08:46;;;;;;;5.05;3.97;;;14.70;99.90;;;;;;5053160;28;20211;-75
2023/07/22 02:11:12;;;;;;;4.45;4.05;;;14.60;99.90;;;;;;5053150;28;20040;-72
2023/07/22 02:13:38;;;;;;;4.60;3.95;;;14.60;99.90;;;;;;5052977;28;20134;-76
2023/07/22 02:16:04;;;;;;;5.60;3.90;;;14.50;99.90;;;;;;5053331;28;20157;-72
2023/07/22 02:18:30;;;;;;;4.68;3.75;;;14.50;99.90;;;;;;5053102;28;20040;-72
2023/07/22 02:20:56;;;;;;;3.88;3.42;;;14.50;99.90;;;;;;5052285;28;20495;-73
2023/07/22 02:23:23;;;;;;;5.78;3.38;;;14.40;99.90;;;;;;5053232;28;20017;-73
2023/07/22 02:25:50;;;;;;;3.25;2.95;;;14.50;99.90;;;;;;5052225;28;20051;-73
2023/07/22 02:28:20;;;;;;;6.00;3.10;;;14.40;99.90;;;;;;5052779;28;20431;-73
2023/07/22 02:30:46;;;;;;;3.53;3.05;;;14.40;99.90;;;;;;5052275;28;20379;-73
2023/07/22 02:33:12;;;;;;;4.80;3.25;;;14.30;99.90;;;;;;5052725;28;20025;-72
2023/07/22 02:35:37;;;;;;;5.00;2.88;;;14.40;99.90;;;;;;5052071;28;20064;-76
2023/07/22 02:38:03;;;;;;;3.65;3.13;;;14.30;99.90;;;;;;5052529;28;20037;-74
2023/07/22 02:40:29;;;;;;;5.38;3.15;;;14.30;99.90;;;;;;5052188;28;20390;-72
2023/07/22 02:42:54;;;;;;;3.88;2.60;;;14.30;99.90;;;;;;5051975;28;20147;-76
2023/07/22 02:45:20;;;;;;;3.67;2.55;;;14.30;99.90;;;;;;5052770;28;20025;-75
2023/07/22 02:47:46;;;;;;;5.40;2.63;;;14.30;99.90;;;;;;5051968;28;20025;-75
2023/07/22 02:50:11;;;;;;;3.60;2.15;;;14.20;99.90;;;;;;5053011;28;20477;-77
2023/07/22 02:52:37;;;;;;;3.70;2.13;;;14.20;99.90;;;;;;5052797;28;20036;-78
2023/07/22 02:55:19;;;;;;;4.35;2.55;;;14.20;99.90;;;;;;5052059;28;20112;-77
2023/07/22 02:57:46;;;;;;;4.80;2.30;;;14.20;99.90;;;;;;5052017;28;20518;-79
2023/07/22 03:00:13;;;;;;;4.60;2.58;;;14.10;99.90;;;;;;5052862;28;20021;-75
2023/07/22 03:02:41;;;;;;;4.28;2.45;;;14.10;99.90;;;;;;5051682;28;20071;-77
2023/07/22 03:05:08;;;;;;;3.05;2.13;;;14.10;99.90;;;;;;5052650;28;20400;-76
2023/07/22 03:07:38;;;;;;;4.00;2.45;;;14.20;99.90;;;;;;5052547;28;20028;-80
2023/07/22 03:10:07;;;;;;;2.80;2.50;;;14.10;99.90;;;;;;5050704;28;20053;-74
2023/07/22 03:12:34;;;;;;;5.38;2.75;;;14.10;99.90;;;;;;5051812;28;20070;-72
2023/07/22 03:15:00;;;;;;;4.20;2.88;;;14.10;99.90;;;;;;5050797;28;20040;-72
2023/07/22 03:17:26;;;;;;;4.13;2.60;;;14.20;99.90;;;;;;5051480;28;20035;-72
2023/07/22 03:19:52;;;;;;;4.72;3.05;;;14.20;99.90;;;;;;5050984;28;20025;-72
2023/07/22 03:22:18;;;;;;;4.38;3.22;;;14.20;99.90;;;;;;5051680;28;20041;-74
2023/07/22 03:24:44;;;;;;;3.38;2.78;;;14.20;99.90;;;;;;5051271;28;20179;-77
2023/07/22 03:27:11;;;;;;;3.95;2.55;;;14.20;99.90;;;;;;5051621;28;20025;-76
2023/07/22 03:29:37;;;;;;;3.85;2.78;;;14.20;99.90;;;;;;5052312;28;20040;-77
2023/07/22 03:32:03;;;;;;;6.10;3.50;;;14.20;99.90;;;;;;5051652;28;20091;-77
2023/07/22 03:34:33;;;;;;;6.95;3.53;;;14.30;99.90;;;;;;5052169;28;20033;-78
2023/07/22 03:36:58;;;;;;;4.78;3.55;;;14.20;99.90;;;;;;5051924;28;20029;-77
2023/07/22 03:39:24;;;;;;;5.78;3.25;;;14.30;99.90;;;;;;5052077;28;20028;-76
2023/07/22 03:41:50;;;;;;;5.72;3.78;;;14.30;99.90;;;;;;5051693;28;20098;-78
2023/07/22 03:44:16;;;;;;;5.05;3.65;;;14.30;99.90;;;;;;5050443;28;20075;-73
2023/07/22 03:46:41;;;;;;;6.40;4.18;;;14.30;99.90;;;;;;5051268;28;20029;-77
2023/07/22 03:49:07;;;;;;;9.15;4.20;;;14.30;99.90;;;;;;5051127;28;20028;-75
2023/07/22 03:51:33;;;;;;;5.32;4.05;;;14.30;99.90;;;;;;5051783;28;20477;-73
2023/07/22 03:53:59;;;;;;;6.60;4.35;;;14.20;99.90;;;;;;5050716;28;20032;-73
2023/07/22 03:56:25;;;;;;;7.05;4.90;;;14.30;99.90;;;;;;5051501;28;20021;-77
2023/07/22 03:58:51;;;;;;;9.73;5.63;;;14.30;99.90;;;;;;5050897;28;20055;-75
2023/07/22 04:01:17;;;;;;;8.60;5.18;;;14.30;99.90;;;;;;5051182;28;20056;-75
2023/07/22 04:03:43;;;;;;;7.75;5.65;;;14.30;99.90;;;;;;5051382;28;20060;-81
2023/07/22 04:06:09;;;;;;;10.57;5.55;;;14.30;99.90;;;;;;5050806;28;20139;-76
2023/07/22 04:08:34;;;;;;;10.15;6.18;;;14.30;99.90;;;;;;5049936;28;20116;-76
2023/07/22 04:11:00;;;;;;;8.27;5.95;;;14.30;99.90;;;;;;5050423;28;20121;-76
2023/07/22 04:13:26;;;;;;;9.55;6.57;;;14.30;99.90;;;;;;5050910;28;20379;-75
2023/07/22 04:15:52;;;;;;;12.18;6.60;;;14.30;99.90;;;;;;5050617;28;20029;-76
2023/07/22 04:18:19;;;;;;;12.13;6.70;;;14.40;99.90;;;;;;5050996;28;20431;-75
2023/07/22 04:20:47;;;;;;;9.52;6.78;;;14.30;99.90;;;;;;5050840;28;20382;-80
2023/07/22 04:23:13;;;;;;;10.50;7.00;;;14.30;99.90;;;;;;5051236;28;20037;-75
2023/07/22 04:25:44;;;;;;;10.60;6.85;;;14.40;99.90;;;;;;5050929;28;20177;-75
2023/07/22 04:28:10;;;;;;;11.25;6.95;;;14.40;99.90;;;;;;5050190;28;20049;-75
2023/07/22 04:30:37;;;;;;;9.60;6.30;;;14.40;99.90;;;;;;5050305;28;20036;-73
2023/07/22 04:33:05;;;;;;;9.55;6.40;;;14.40;99.90;;;;;;5049448;28;20028;-73
2023/07/22 04:35:38;;;;;;;10.95;7.00;;;14.50;99.90;;;;;;5049928;28;20367;-72
2023/07/22 04:38:04;;;;;;;9.77;6.18;;;14.50;99.90;;;;;;5050115;28;20033;-72
2023/07/22 04:40:30;;;;;;;9.32;6.05;;;14.40;99.90;;;;;;5050477;28;20037;-72
2023/07/22 04:42:59;;;;;;;8.02;5.43;;;14.40;99.90;;;;;;5049493;28;20462;-72
2023/07/22 04:45:25;;;;;;;7.57;5.60;;;14.50;99.90;;;;;;5050251;28;20036;-72
2023/07/22 04:47:51;;;;;;;6.15;4.90;;;14.50;99.90;;;;;;5049567;28;20025;-72
2023/07/22 04:50:17;;;;;;;6.90;4.70;;;14.50;99.90;;;;;;5050486;28;20027;-72
2023/07/22 04:52:46;;;;;;;5.82;4.03;;;14.50;99.90;;;;;;5050083;28;20196;-72
2023/07/22 04:55:13;;;;;;;5.70;4.18;;;14.50;99.90;;;;;;5049706;28;20036;-72
2023/07/22 04:57:41;;;;;;;5.28;3.75;;;14.50;99.90;;;;;;5049827;28;20134;-72
2023/07/22 05:00:15;;;;;;;5.30;4.28;;;14.60;99.90;;;;;;5049688;28;20136;-72
2023/07/22 05:02:43;;;;;;;6.85;3.80;;;14.60;99.90;;;;;;5050130;28;20021;-72
2023/07/22 05:05:09;;;;;;;5.53;3.80;;;14.60;99.90;;;;;;5049704;28;20304;-72
2023/07/22 05:07:35;;;;;;;4.05;3.45;;;14.60;99.90;;;;;;5049847;28;20509;-72
2023/07/22 05:10:01;;;;;;;4.10;3.20;;;14.60;99.90;;;;;;5048990;28;20096;-72
2023/07/22 05:12:27;;;;;;;4.20;3.25;;;14.60;99.90;;;;;;5048425;28;20450;-72
2023/07/22 05:14:53;;;;;;;4.10;2.90;;;14.70;99.90;;;;;;5049183;28;20029;-72
2023/07/22 05:17:18;;;;;;;3.78;3.38;;;14.70;99.90;;;;;;5049454;28;20549;-72
2023/07/22 05:19:44;;;;;;;3.25;2.65;;;14.70;99.90;;;;;;5049952;28;20029;-71
2023/07/22 05:22:10;;;;;;;2.65;2.40;;;14.70;99.90;;;;;;5049144;28;20059;-72
2023/07/22 05:24:36;;;;;;;3.15;2.63;;;14.80;99.90;;;;;;5050040;28;20327;-71
2023/07/22 05:27:01;;;;;;;3.15;2.70;;;14.80;99.90;;;;;;5050871;28;20038;-72
2023/07/22 05:29:27;;;;;;;4.30;3.20;;;14.80;99.90;;;;;;5053377;28;20037;-72
2023/07/22 05:31:53;;;;;;;3.20;2.90;;;14.80;99.90;;;;;;5053179;28;20025;-71
2023/07/22 05:34:18;;;;;;;3.75;3.08;;;14.80;99.90;;;;;;5053721;28;20057;-71
2023/07/22 05:36:44;;;;;;;5.65;3.75;;;14.80;99.90;;;;;;5053569;28;20029;-71
2023/07/22 05:39:10;;;;;;;5.20;4.20;;;14.90;99.90;;;;;;5052903;28;20025;-71
2023/07/22 05:41:36;;;;;;;5.82;3.75;;;14.90;99.90;;;;;;5053304;28;20496;-71
2023/07/22 05:44:02;;;;;;;4.90;3.80;;;14.90;99.90;;;;;;5051557;28;20048;-71
2023/07/22 05:46:27;;;;;;;6.38;4.35;;;14.90;99.90;;;;;;5051842;28;20025;-71
2023/07/22 05:48:53;;;;;;;5.78;4.00;;;14.90;99.90;;;;;;5052917;28;20032;-73
2023/07/22 05:51:19;;;;;;;6.10;4.50;;;15.00;99.90;;;;;;5053857;28;20024;-71
2023/07/22 05:53:45;;;;;;;5.75;3.50;;;15.00;99.90;;;;;;5053079;28;20029;-71
2023/07/22 05:56:10;;;;;;;4.72;3.60;;;15.00;99.90;;;;;;5052508;28;20634;-71
2023/07/22 05:58:36;;;;;;;4.43;3.75;;;15.00;99.90;;;;;;5053080;28;20037;-71
2023/07/22 06:01:02;;;;;;;6.78;3.63;;;15.10;99.90;;;;;;5052671;28;20079;-71
2023/07/22 06:03:28;;;;;;;4.53;3.33;;;15.10;99.90;;;;;;5052903;28;20328;-71
2023/07/22 06:05:54;;;;;;;4.80;3.75;;;15.10;99.90;;;;;;5052464;28;20029;-72
2023/07/22 06:08:20;;;;;;;5.13;4.00;;;15.10;99.90;;;;;;5053106;28;20407;-71
2023/07/22 06:10:45;;;;;;;7.32;4.30;;;15.10;99.90;;;;;;5052883;28;20028;-71
2023/07/22 06:13:11;;;;;;;5.40;3.70;;;15.20;99.90;;;;;;5052564;28;20033;-71
2023/07/22 06:15:37;;;;;;;5.50;3.08;;;15.20;99.90;;;;;;5052823;28;20032;-71
2023/07/22 06:18:03;;;;;;;5.78;3.70;;;15.30;99.90;;;;;;5050918;28;20132;-71
2023/07/22 06:20:29;;;;;;;5.65;4.18;;;15.30;99.90;;;;;;5052813;28;20029;-71
2023/07/22 06:22:55;;;;;;;5.40;3.70;;;15.40;99.90;;;;;;5052239;28;20175;-72
2023/07/22 06:25:21;;;;;;;6.38;3.88;;;15.40;99.90;;;;;;5052845;28;20115;-71
2023/07/22 06:27:46;;;;;;;5.60;4.05;;;15.50;99.90;;;;;;5052237;28;20045;-71
2023/07/22 06:30:12;;;;;;;5.28;3.80;;;15.50;99.90;;;;;;5051863;28;20055;-72
2023/07/22 06:32:39;;;;;;;4.22;3.58;;;15.50;99.90;;;;;;5050937;28;20029;-71
2023/07/22 06:35:05;;;;;;;4.05;3.10;;;15.50;99.90;;;;;;5051471;28;20344;-71
2023/07/22 06:37:31;;;;;;;4.25;3.03;;;15.60;99.90;;;;;;5051999;28;20123;-71
2023/07/22 06:39:57;;;;;;;2.92;2.63;;;15.60;99.90;;;;;;5051407;28;20481;-72
2023/07/22 06:42:22;;;;;;;4.13;3.65;;;15.70;99.90;;;;;;5052942;28;20128;-71
2023/07/22 06:44:48;;;;;;;4.60;3.60;;;15.70;99.90;;;;;;5052472;28;20029;-72
2023/07/22 06:47:14;;;;;;;3.50;3.17;;;15.80;99.90;;;;;;5051578;28;20052;-71
2023/07/22 06:49:41;;;;;;;4.18;3.65;;;15.80;99.90;;;;;;5052440;28;20063;-72
2023/07/22 06:52:07;;;;;;;4.15;3.33;;;15.90;99.90;;;;;;5052010;28;20056;-72
2023/07/22 06:54:34;;;;;;;4.78;3.63;;;16.00;99.90;;;;;;5052135;28;20029;-72
2023/07/22 06:56:59;;;;;;;3.47;3.17;;;16.10;99.90;;;;;;5050962;28;20435;-71
2023/07/22 06:59:26;;;;;;;4.90;3.17;;;16.20;99.90;;;;;;5051356;28;20108;-72
2023/07/22 07:01:52;;;;;;;3.42;2.85;;;16.10;99.90;;;;;;5051422;28;20437;-72
2023/07/22 07:04:18;;;;;;;2.78;2.40;;;16.20;99.90;;;;;;5050593;28;20025;-72
2023/07/22 07:06:45;;;;;;;3.28;2.17;;;16.20;99.90;;;;;;5050059;28;20055;-72
2023/07/22 07:09:11;;;;;;;3.30;2.38;;;16.20;99.90;;;;;;5050986;28;20107;-71
2023/07/22 07:11:37;;;;;;;3.03;2.60;;;16.30;99.90;;;;;;5051501;28;20395;-72
2023/07/22 07:14:03;;;;;;;3.83;2.47;;;16.30;99.90;;;;;;5050380;28;20036;-72
2023/07/22 07:16:31;;;;;;;3.33;2.20;;;16.40;99.90;;;;;;5051506;28;20230;-71
2023/07/22 07:19:00;;;;;;;2.60;2.40;;;16.40;99.90;;;;;;5050472;28;20398;-75
2023/07/22 07:21:26;;;;;;;2.45;1.90;;;16.40;99.90;;;;;;5051411;28;20108;-72
2023/07/22 07:23:53;;;;;;;2.65;2.33;;;16.50;99.90;;;;;;5050938;28;20335;-73
2023/07/22 07:26:20;;;;;;;1.98;1.77;;;16.50;99.90;;;;;;5050505;28;20111;-72
2023/07/22 07:28:47;;;;;;;2.78;2.10;;;16.60;99.90;;;;;;5051293;28;20067;-72
2023/07/22 07:31:13;;;;;;;2.20;2.00;;;16.70;99.90;;;;;;5050435;28;20024;-72
2023/07/22 07:33:38;;;;;;;2.58;2.13;;;16.70;99.90;;;;;;5051016;28;20373;-71
2023/07/22 07:36:04;;;;;;;1.85;1.63;;;16.80;99.90;;;;;;5049972;28;20327;-72
2023/07/22 07:38:31;;;;;;;2.38;2.10;;;16.80;99.90;;;;;;5050674;28;20488;-71
2023/07/22 07:40:58;;;;;;;2.05;1.40;;;16.80;99.90;;;;;;5050368;28;20359;-75
2023/07/22 07:43:24;;;;;;;1.90;1.80;;;16.90;99.90;;;;;;5050599;28;20124;-72
2023/07/22 07:45:50;;;;;;;2.28;2.03;;;17.00;99.90;;;;;;5050768;28;20470;-71
2023/07/22 07:48:16;;;;;;;4.47;1.80;;;17.10;99.90;;;;;;5049564;28;20143;-71
2023/07/22 07:50:43;;;;;;;2.38;1.60;;;17.10;99.90;;;;;;5051118;28;20044;-72
2023/07/22 07:53:08;;;;;;;2.20;1.30;;;17.20;99.90;;;;;;5050069;28;20028;-71
2023/07/22 07:55:34;;;;;;;1.50;1.40;;;17.30;99.90;;;;;;5050701;28;20380;-71
2023/07/22 07:58:00;;;;;;;2.25;1.75;;;17.30;99.90;;;;;;5050180;28;20041;-72
2023/07/22 08:00:25;;;;;;;2.72;1.50;;;17.30;99.90;;;;;;5050856;28;20055;-72
2023/07/22 08:02:51;;;;;;;3.03;1.90;;;17.40;99.90;;;;;;5048915;28;20025;-73
2023/07/22 08:05:17;;;;;;;1.75;1.65;;;17.40;99.90;;;;;;5050076;28;20467;-72
2023/07/22 08:07:43;;;;;;;2.42;1.90;;;17.50;99.90;;;;;;5050685;28;20108;-72
2023/07/22 08:10:09;;;;;;;4.43;2.10;;;17.50;99.90;;;;;;5049857;28;20029;-72
2023/07/22 08:12:37;;;;;;;1.52;1.33;;;17.60;99.90;;;;;;5050682;28;20079;-72
2023/07/22 08:15:03;;;;;;;1.70;1.58;;;17.60;99.90;;;;;;5049792;28;20104;-72
2023/07/22 08:17:29;;;;;;;2.45;1.50;;;17.70;99.90;;;;;;5050547;28;20195;-72
2023/07/22 08:19:54;;;;;;;5.57;1.70;;;17.70;99.90;;;;;;5050352;28;20029;-72
2023/07/22 08:22:20;;;;;;;1.52;1.42;;;17.80;99.90;;;;;;5049746;28;20454;-72
2023/07/22 08:24:46;;;;;;;2.67;1.35;;;17.90;99.90;;;;;;5049940;28;20108;-72
2023/07/22 08:27:11;;;;;;;2.70;1.52;;;18.00;99.90;;;;;;5049118;28;20087;-72
2023/07/22 08:29:37;;;;;;;1.98;1.40;;;18.20;99.90;;;;;;5050267;28;20413;-72
2023/07/22 08:32:03;;;;;;;1.42;1.25;;;18.30;99.90;;;;;;5049359;28;20025;-72
2023/07/22 08:34:29;;;;;;;2.13;1.50;;;18.30;99.90;;;;;;5049974;28;20029;-72
2023/07/22 08:36:55;;;;;;;2.28;1.10;;;18.30;99.90;;;;;;5049429;28;20029;-75
2023/07/22 08:39:21;;;;;;;2.97;1.15;;;18.30;99.90;;;;;;5049187;28;20123;-72
2023/07/22 08:41:52;;;;;;;2.30;1.25;;;18.30;99.90;;;;;;5049353;28;20025;-72
2023/07/22 08:44:20;;;;;;;1.67;1.40;;;18.30;99.90;;;;;;5049041;28;20131;-72
2023/07/22 08:46:49;;;;;;;1.23;1.10;;;18.30;99.90;;;;;;5049410;28;20037;-72
2023/07/22 08:49:15;;;;;;;2.17;1.30;;;18.40;99.90;;;;;;5048929;28;20786;-72
2023/07/22 08:51:41;;;;;;;1.67;1.35;;;18.30;99.90;;;;;;5049291;28;20415;-72
2023/07/22 08:54:08;;;;;;;3.40;1.23;;;18.30;99.90;;;;;;5049066;28;20091;-73
2023/07/22 08:56:35;;;;;;;2.22;1.20;;;18.30;99.90;;;;;;5049037;28;20406;-72
2023/07/22 08:59:01;;;;;;;1.33;1.23;;;18.40;99.90;;;;;;5048964;28;20033;-73
2023/07/22 09:01:27;;;;;;;2.03;1.48;;;18.40;99.90;;;;;;5048704;28;20112;-72
2023/07/22 09:03:56;;;;;;;2.65;1.00;;;18.40;99.90;;;;;;5049250;28;20029;-72
2023/07/22 09:06:22;;;;;;;2.22;1.35;;;18.40;99.90;;;;;;5049775;28;20148;-74
2023/07/22 09:08:48;;;;;;;1.23;1.13;;;18.40;99.90;;;;;;5049704;28;20124;-72
2023/07/22 09:11:15;;;;;;;1.40;1.27;;;18.30;99.90;;;;;;5048800;28;20479;-72
2023/07/22 09:13:44;;;;;;;2.70;1.40;;;18.30;99.90;;;;;;5048702;28;20021;-72
2023/07/22 09:16:11;;;;;;;1.80;1.20;;;18.40;99.90;;;;;;5047984;28;20043;-72
2023/07/22 09:18:36;;;;;;;1.20;1.05;;;18.40;99.90;;;;;;5050080;28;20031;-71
2023/07/22 09:21:03;;;;;;;1.60;1.00;;;18.50;99.90;;;;;;5049251;28;20025;-72
2023/07/22 09:23:36;;;;;;;1.30;1.20;;;18.50;99.90;;;;;;5049706;28;20040;-72
2023/07/22 09:26:13;;;;;;;1.00;1.00;;;18.60;99.90;;;;;;5049392;28;20091;-71
2023/07/22 09:28:49;;;;;;;0.90;0.90;;;18.70;99.90;;;;;;5049929;28;20053;-72
2023/07/22 09:31:15;;;;;;;3.50;1.30;;;18.70;99.90;;;;;;5048894;28;20024;-72
2023/07/22 09:33:40;;;;;;;2.60;1.27;;;18.70;99.90;;;;;;5049662;28;20031;-72
2023/07/22 09:36:06;;;;;;;1.23;1.13;;;18.80;99.90;;;;;;5048893;28;20036;-72
2023/07/22 09:38:32;;;;;;;1.20;1.08;;;18.90;99.90;;;;;;5049688;28;20065;-72
2023/07/22 09:40:58;;;;;;;1.95;1.00;;;18.90;99.90;;;;;;5049172;28;20099;-76
2023/07/22 09:43:24;;;;;;;2.15;1.20;;;18.90;99.90;;;;;;5049444;28;20025;-72
2023/07/22 09:45:49;;;;;;;3.90;1.60;;;18.80;99.90;;;;;;5050007;28;20056;-73
2023/07/22 09:48:15;;;;;;;5.50;1.45;;;18.90;99.90;;;;;;5049244;28;20025;-72
2023/07/22 09:50:41;;;;;;;2.30;1.15;;;18.90;99.90;;;;;;5049756;28;20022;-72
2023/07/22 09:53:07;;;;;;;4.68;1.15;;;18.90;99.90;;;;;;5049051;28;20029;-73
2023/07/22 09:55:34;;;;;;;1.70;1.33;;;18.90;99.90;;;;;;5049247;28;20040;-73
2023/07/22 09:58:10;;;;;;;2.15;1.02;;;18.90;99.90;;;;;;5049215;28;20048;-76
2023/07/22 10:00:36;;;;;;;1.15;1.05;;;18.90;99.90;;;;;;5049821;28;20040;-72
2023/07/22 10:03:06;;;;;;;2.08;1.20;;;18.90;99.90;;;;;;5048972;28;20051;-73
2023/07/22 10:05:35;;;;;;;1.95;1.20;;;18.80;99.90;;;;;;5049477;28;20028;-72
2023/07/22 10:08:02;;;;;;;2.67;1.35;;;18.70;99.90;;;;;;5049052;28;20029;-75
2023/07/22 10:10:33;;;;;;;2.30;1.50;;;18.70;99.90;;;;;;5049417;28;20048;-72
2023/07/22 10:12:59;;;;;;;1.73;1.60;;;18.60;99.90;;;;;;5051039;28;20028;-75
2023/07/22 10:15:28;;;;;;;1.40;1.30;;;18.60;99.90;;;;;;5053165;28;20101;-72
2023/07/22 10:17:55;;;;;;;1.40;1.30;;;18.60;99.90;;;;;;5053084;28;20097;-72
2023/07/22 10:20:23;;;;;;;1.60;1.50;;;18.50;99.90;;;;;;5052415;28;20017;-72
2023/07/22 10:22:49;;;;;;;1.83;1.70;;;18.60;99.90;;;;;;5052850;28;20021;-72
2023/07/22 10:25:19;;;;;;;2.38;1.40;;;18.60;99.90;;;;;;5052370;28;20098;-73
2023/07/22 10:27:46;;;;;;;1.63;1.38;;;18.70;99.90;;;;;;5052405;28;20045;-72
2023/07/22 10:30:14;;;;;;;2.35;1.60;;;18.90;99.90;;;;;;5051875;28;20435;-73
2023/07/22 10:32:48;;;;;;;2.25;1.50;;;18.80;99.90;;;;;;5052479;28;20025;-72
2023/07/22 10:35:30;;;;;;;1.30;1.23;;;18.80;99.90;;;;;;5051391;28;20032;-73
2023/07/22 10:38:10;;;;;;;2.07;1.50;;;18.80;99.90;;;;;;5052280;28;20465;-72
2023/07/22 10:40:52;;;;;;;1.23;1.13;;;18.90;99.90;;;;;;5051783;28;20446;-73
2023/07/22 10:43:23;;;;;;;;;;;19.00;99.90;;;;;;5052129;28;20071;-73
2023/07/22 10:45:51;;;;;;;1.45;1.08;;;19.10;99.90;;;;;;5052520;28;19909;-73
2023/07/22 10:48:19;;;;;;;1.30;1.20;;;19.00;99.90;;;;;;5051647;28;20063;-72
2023/07/22 10:50:53;;;;;;;1.38;1.27;;;19.10;99.90;;;;;;5052999;28;20037;-73
2023/07/22 10:53:24;;;;;;;1.50;1.40;;;19.10;99.90;;;;;;5051631;28;20105;-73
2023/07/22 10:56:12;;;;;;;2.10;1.02;;;19.20;99.90;;;;;;5052211;28;20033;-73
2023/07/22 10:58:46;;;;;;;2.25;1.00;;;19.30;99.90;;;;;;5051847;28;20043;-73
2023/07/22 11:01:27;;;;;;;1.67;1.27;;;19.30;99.90;;;;;;5051664;28;20017;-73
2023/07/22 11:04:14;;;;;;;2.65;1.20;;;19.30;99.90;;;;;;5051426;28;20090;-73
2023/07/22 11:06:43;;;;;;;2.10;1.20;;;19.40;99.90;;;;;;5050903;28;20033;-73
2023/07/22 11:09:34;;;;;;;1.70;1.55;;;19.50;99.90;;;;;;5050537;28;20394;-73
2023/07/22 11:12:12;;;;;;;1.30;1.05;;;19.60;99.90;;;;;;5051295;28;20470;-73
2023/07/22 11:14:44;;;;;;;2.17;1.08;;;19.60;99.90;;;;;;5051527;28;20050;-73
2023/07/22 11:17:10;;;;;;;1.90;0.75;;;19.60;99.90;;;;;;5050387;28;20041;-73
2023/07/22 11:19:37;;;;;;;2.28;1.00;;;19.70;99.90;;;;;;5051085;28;20104;-75
2023/07/22 11:22:03;;;;;;;0.73;0.73;;;19.90;99.90;;;;;;5051339;28;20032;-76
2023/07/22 11:24:29;;;;;;;1.23;1.00;;;20.00;99.90;;;;;;5049872;28;20475;-73
2023/07/22 11:26:56;;;;;;;1.10;1.00;;;20.20;99.90;;;;;;5050633;28;20056;-73
2023/07/22 11:29:21;;;;;;;1.02;0.90;;;20.20;99.90;;;;;;5050211;28;20091;-73
2023/07/22 11:31:49;;;;;;;1.38;0.93;;;20.30;99.90;;;;;;5050678;28;20112;-73
2023/07/22 11:34:17;;;;;;;1.33;1.13;;;20.40;99.90;;;;;;5050035;28;20454;-73
2023/07/22 11:36:43;;;;;;;1.95;1.17;;;20.50;99.90;;;;;;5051380;28;20025;-73
2023/07/22 11:39:19;;;;;;;2.35;1.40;;;20.50;99.90;;;;;;5050571;28;20045;-73
2023/07/22 11:41:46;;;;;;;1.30;1.20;;;20.50;99.90;;;;;;5051223;28;20060;-74
2023/07/22 11:44:14;;;;;;;1.50;1.40;;;20.50;99.90;;;;;;5050686;28;20071;-74
2023/07/22 11:46:58;;;;;;;1.17;1.08;;;20.50;99.90;;;;;;5051277;28;20071;-73
2023/07/22 11:49:32;;;;;;;2.30;1.17;;;20.50;99.90;;;;;;5050692;28;20033;-74
2023/07/22 11:52:08;;;;;;;1.40;1.30;;;20.40;99.90;;;;;;5051299;28;20416;-74
2023/07/22 11:54:35;;;;;;;3.45;1.30;;;20.40;99.90;;;;;;5051188;28;20082;-74
2023/07/22 11:57:30;;;;;;;2.50;1.30;;;20.50;99.90;;;;;;5051296;28;20037;-74
2023/07/22 11:59:56;;;;;;;1.77;1.65;;;20.60;99.90;;;;;;5037107;28;20041;-74
2023/07/22 12:02:28;;;;;;;1.85;1.50;;;20.60;99.90;;;;;;5051363;28;20069;-74
2023/07/22 12:04:55;;;;;;;1.77;1.65;;;20.70;99.90;;;;;;5051494;28;20123;-74
2023/07/22 12:07:29;;;;;;;1.50;1.40;;;20.70;99.90;;;;;;5050573;28;20075;-74
2023/07/22 12:09:57;;;;;;;5.75;1.92;;;20.90;99.90;;;;;;5050988;28;20036;-74
2023/07/22 12:12:44;;;;;;;4.95;1.50;;;20.90;99.90;;;;;;5050584;28;20033;-74
2023/07/22 12:15:17;;;;;;;1.73;1.63;;;20.90;99.90;;;;;;5050317;28;20083;-73
2023/07/22 12:17:55;;;;;;;1.58;1.48;;;21.00;99.90;;;;;;5050442;28;20036;-73
2023/07/22 12:20:26;;;;;;;1.15;1.05;;;21.20;99.90;;;;;;5050003;28;20025;-73
2023/07/22 12:22:52;;;;;;;1.70;1.60;;;21.40;99.90;;;;;;5050551;28;20026;-73
2023/07/22 12:25:18;;;;;;;1.50;1.35;;;21.60;99.90;;;;;;5049539;28;20112;-73
2023/07/22 12:27:44;;;;;;;1.50;1.40;;;21.60;99.90;;;;;;5050426;28;20091;-73
2023/07/22 12:30:10;;;;;;;1.65;1.45;;;21.50;99.90;;;;;;5050079;28;20461;-73
2023/07/22 12:32:37;;;;;;;1.58;1.48;;;21.40;99.90;;;;;;5050525;28;20462;-73
2023/07/22 12:35:03;;;;;;;2.20;1.73;;;21.50;99.90;;;;;;5050164;28;20029;-73
2023/07/22 12:37:29;;;;;;;2.55;1.80;;;21.40;99.90;;;;;;5048661;28;20798;-73
2023/07/22 12:39:56;;;;;;;1.60;1.50;;;21.30;99.90;;;;;;5050037;28;20055;-73
2023/07/22 12:42:22;;;;;;;2.00;1.75;;;21.20;99.90;;;;;;5049841;28;20033;-73
2023/07/22 12:44:47;;;;;;;1.80;1.40;;;21.10;99.90;;;;;;5050270;28;20055;-73
2023/07/22 12:47:13;;;;;;;2.10;1.90;;;21.00;99.90;;;;;;5049894;28;20040;-73